sensor_id;sensor_type;location;lat;lon;timestamp;P1;durP1;ratioP1;P2;durP2;ratioP2
28760;SDS011;15917;50.014;8.352;2023-10-09T00:01:03;12.52;;;5.80;;
28760;SDS011;15917;50.014;8.352;2023-10-09T00:03:42;16.05;;;6.13;;
28760;SDS011;15917;50.014;8.352;2023-10-09T00:06:09;14.15;;;5.05;;
28760;SDS011;15917;50.014;8.352;2023-10-09T00:08:38;12.85;;;5.28;;
28760;SDS011;15917;50.014;8.352;2023-10-09T00:11:09;14.95;;;5.57;;
28760;SDS011;15917;50.014;8.352;2023-10-09T00:13:41;16.75;;;5.30;;
28760;SDS011;15917;50.014;8.352;2023-10-09T00:16:21;13.75;;;6.10;;
28760;SDS011;15917;50.014;8.352;2023-10-09T00:19:00;16.50;;;6.25;;
28760;SDS011;15917;50.014;8.352;2023-10-09T00:21:46;17.35;;;5.97;;
28760;SDS011;15917;50.014;8.352;2023-10-09T00:24:13;12.53;;;5.57;;
28760;SDS011;15917;50.014;8.352;2023-10-09T00:26:40;20.48;;;5.90;;
28760;SDS011;15917;50.014;8.352;2023-10-09T00:29:12;15.43;;;5.93;;
28760;SDS011;15917;50.014;8.352;2023-10-09T00:31:50;16.45;;;5.97;;
28760;SDS011;15917;50.014;8.352;2023-10-09T00:34:21;11.70;;;5.68;;
28760;SDS011;15917;50.014;8.352;2023-10-09T00:36:47;17.13;;;5.78;;
28760;SDS011;15917;50.014;8.352;2023-10-09T00:39:20;17.50;;;5.70;;
28760;SDS011;15917;50.014;8.352;2023-10-09T00:42:10;11.18;;;5.28;;
28760;SDS011;15917;50.014;8.352;2023-10-09T00:44:47;13.32;;;5.30;;
28760;SDS011;15917;50.014;8.352;2023-10-09T00:47:13;16.40;;;5.78;;
28760;SDS011;15917;50.014;8.352;2023-10-09T00:49:48;18.88;;;5.82;;
28760;SDS011;15917;50.014;8.352;2023-10-09T00:52:35;19.17;;;5.72;;
28760;SDS011;15917;50.014;8.352;2023-10-09T00:55:05;11.77;;;6.43;;
28760;SDS011;15917;50.014;8.352;2023-10-09T00:57:43;14.07;;;5.00;;
28760;SDS011;15917;50.014;8.352;2023-10-09T01:00:16;14.80;;;5.88;;
28760;SDS011;15917;50.014;8.352;2023-10-09T01:05:41;17.40;;;6.28;;
28760;SDS011;15917;50.014;8.352;2023-10-09T01:08:20;17.20;;;6.50;;
28760;SDS011;15917;50.014;8.352;2023-10-09T01:13:43;14.18;;;5.40;;
28760;SDS011;15917;50.014;8.352;2023-10-09T01:16:13;15.40;;;6.00;;
28760;SDS011;15917;50.014;8.352;2023-10-09T01:18:49;14.98;;;6.38;;
28760;SDS011;15917;50.014;8.352;2023-10-09T01:21:17;20.58;;;6.45;;
28760;SDS011;15917;50.014;8.352;2023-10-09T01:23:45;12.30;;;5.22;;
28760;SDS011;15917;50.014;8.352;2023-10-09T01:26:39;16.48;;;5.72;;
28760;SDS011;15917;50.014;8.352;2023-10-09T01:31:42;18.38;;;6.22;;
28760;SDS011;15917;50.014;8.352;2023-10-09T01:34:24;12.60;;;6.03;;
28760;SDS011;15917;50.014;8.352;2023-10-09T01:37:13;15.48;;;6.35;;
28760;SDS011;15917;50.014;8.352;2023-10-09T01:39:44;21.02;;;6.65;;
28760;SDS011;15917;50.014;8.352;2023-10-09T01:42:19;16.83;;;6.00;;
28760;SDS011;15917;50.014;8.352;2023-10-09T01:45:10;16.02;;;6.97;;
28760;SDS011;15917;50.014;8.352;2023-10-09T01:47:37;15.73;;;6.15;;
28760;SDS011;15917;50.014;8.352;2023-10-09T01:50:06;10.30;;;5.53;;
28760;SDS011;15917;50.014;8.352;2023-10-09T01:52:38;18.17;;;6.60;;
28760;SDS011;15917;50.014;8.352;2023-10-09T01:55:05;22.77;;;6.82;;
28760;SDS011;15917;50.014;8.352;2023-10-09T01:57:34;22.10;;;7.20;;
28760;SDS011;15917;50.014;8.352;2023-10-09T02:00:01;23.73;;;6.65;;
28760;SDS011;15917;50.014;8.352;2023-10-09T02:02:37;11.82;;;6.00;;
28760;SDS011;15917;50.014;8.352;2023-10-09T02:05:04;16.55;;;6.38;;
28760;SDS011;15917;50.014;8.352;2023-10-09T02:07:31;18.98;;;6.47;;
28760;SDS011;15917;50.014;8.352;2023-10-09T02:10:07;14.90;;;6.00;;
28760;SDS011;15917;50.014;8.352;2023-10-09T02:12:46;17.77;;;6.82;;
28760;SDS011;15917;50.014;8.352;2023-10-09T02:15:15;13.38;;;6.05;;
28760;SDS011;15917;50.014;8.352;2023-10-09T02:18:01;12.43;;;5.63;;
28760;SDS011;15917;50.014;8.352;2023-10-09T02:20:41;17.15;;;6.60;;
28760;SDS011;15917;50.014;8.352;2023-10-09T02:23:10;18.13;;;7.50;;
28760;SDS011;15917;50.014;8.352;2023-10-09T02:25:38;20.85;;;7.28;;
28760;SDS011;15917;50.014;8.352;2023-10-09T02:28:09;20.10;;;7.25;;
28760;SDS011;15917;50.014;8.352;2023-10-09T02:30:45;16.30;;;6.10;;
28760;SDS011;15917;50.014;8.352;2023-10-09T02:33:15;27.05;;;6.28;;
28760;SDS011;15917;50.014;8.352;2023-10-09T02:35:46;15.85;;;6.82;;
28760;SDS011;15917;50.014;8.352;2023-10-09T02:38:17;21.58;;;7.50;;
28760;SDS011;15917;50.014;8.352;2023-10-09T02:40:42;17.08;;;8.07;;
28760;SDS011;15917;50.014;8.352;2023-10-09T02:43:27;16.48;;;6.25;;
28760;SDS011;15917;50.014;8.352;2023-10-09T02:45:59;23.10;;;6.97;;
28760;SDS011;15917;50.014;8.352;2023-10-09T02:48:40;17.40;;;6.32;;
28760;SDS011;15917;50.014;8.352;2023-10-09T02:51:10;17.88;;;7.25;;
28760;SDS011;15917;50.014;8.352;2023-10-09T02:53:57;20.95;;;7.10;;
28760;SDS011;15917;50.014;8.352;2023-10-09T02:56:34;19.58;;;8.15;;
28760;SDS011;15917;50.014;8.352;2023-10-09T02:59:12;15.90;;;6.88;;
28760;SDS011;15917;50.014;8.352;2023-10-09T03:01:39;20.10;;;6.97;;
28760;SDS011;15917;50.014;8.352;2023-10-09T03:04:05;26.63;;;6.93;;
28760;SDS011;15917;50.014;8.352;2023-10-09T03:06:40;19.92;;;6.85;;
28760;SDS011;15917;50.014;8.352;2023-10-09T03:09:16;27.55;;;6.95;;
28760;SDS011;15917;50.014;8.352;2023-10-09T03:11:46;15.77;;;6.63;;
28760;SDS011;15917;50.014;8.352;2023-10-09T03:14:18;18.15;;;6.70;;
28760;SDS011;15917;50.014;8.352;2023-10-09T03:16:51;17.55;;;6.90;;
28760;SDS011;15917;50.014;8.352;2023-10-09T03:19:17;21.92;;;8.15;;
28760;SDS011;15917;50.014;8.352;2023-10-09T03:21:43;16.83;;;7.28;;
28760;SDS011;15917;50.014;8.352;2023-10-09T03:24:09;16.67;;;6.78;;
28760;SDS011;15917;50.014;8.352;2023-10-09T03:26:36;26.70;;;7.73;;
28760;SDS011;15917;50.014;8.352;2023-10-09T03:29:02;20.35;;;6.88;;
28760;SDS011;15917;50.014;8.352;2023-10-09T03:31:32;16.15;;;7.47;;
28760;SDS011;15917;50.014;8.352;2023-10-09T03:33:59;18.80;;;7.43;;
28760;SDS011;15917;50.014;8.352;2023-10-09T03:36:25;29.73;;;7.63;;
28760;SDS011;15917;50.014;8.352;2023-10-09T03:38:52;24.08;;;7.53;;
28760;SDS011;15917;50.014;8.352;2023-10-09T03:41:23;25.42;;;8.55;;
28760;SDS011;15917;50.014;8.352;2023-10-09T03:43:51;20.42;;;8.02;;
28760;SDS011;15917;50.014;8.352;2023-10-09T03:46:17;18.17;;;7.05;;
28760;SDS011;15917;50.014;8.352;2023-10-09T03:48:49;20.65;;;9.45;;
28760;SDS011;15917;50.014;8.352;2023-10-09T03:51:17;22.48;;;8.85;;
28760;SDS011;15917;50.014;8.352;2023-10-09T03:53:49;20.50;;;8.25;;
28760;SDS011;15917;50.014;8.352;2023-10-09T03:56:18;20.50;;;8.82;;
28760;SDS011;15917;50.014;8.352;2023-10-09T03:58:50;20.58;;;8.55;;
28760;SDS011;15917;50.014;8.352;2023-10-09T04:01:17;22.42;;;7.82;;
28760;SDS011;15917;50.014;8.352;2023-10-09T04:03:49;24.55;;;8.85;;
28760;SDS011;15917;50.014;8.352;2023-10-09T04:06:20;18.95;;;7.35;;
28760;SDS011;15917;50.014;8.352;2023-10-09T04:08:53;26.80;;;8.05;;
28760;SDS011;15917;50.014;8.352;2023-10-09T04:11:20;26.90;;;8.13;;
28760;SDS011;15917;50.014;8.352;2023-10-09T04:13:48;13.50;;;6.47;;
28760;SDS011;15917;50.014;8.352;2023-10-09T04:16:18;18.15;;;7.60;;
28760;SDS011;15917;50.014;8.352;2023-10-09T04:18:59;15.25;;;7.07;;
28760;SDS011;15917;50.014;8.352;2023-10-09T04:21:35;17.88;;;7.10;;
28760;SDS011;15917;50.014;8.352;2023-10-09T04:24:05;18.50;;;7.78;;
28760;SDS011;15917;50.014;8.352;2023-10-09T04:26:48;22.20;;;8.90;;
28760;SDS011;15917;50.014;8.352;2023-10-09T04:29:19;16.42;;;7.40;;
28760;SDS011;15917;50.014;8.352;2023-10-09T04:31:54;27.70;;;7.95;;
28760;SDS011;15917;50.014;8.352;2023-10-09T04:36:48;19.83;;;7.13;;
28760;SDS011;15917;50.014;8.352;2023-10-09T04:39:15;19.63;;;7.65;;
28760;SDS011;15917;50.014;8.352;2023-10-09T04:41:50;31.70;;;7.80;;
28760;SDS011;15917;50.014;8.352;2023-10-09T04:44:16;16.92;;;7.63;;
28760;SDS011;15917;50.014;8.352;2023-10-09T04:46:54;22.10;;;8.45;;
28760;SDS011;15917;50.014;8.352;2023-10-09T04:49:35;23.70;;;7.63;;
28760;SDS011;15917;50.014;8.352;2023-10-09T04:52:26;17.63;;;7.72;;
28760;SDS011;15917;50.014;8.352;2023-10-09T04:54:55;26.60;;;8.02;;
28760;SDS011;15917;50.014;8.352;2023-10-09T04:57:42;21.98;;;9.45;;
28760;SDS011;15917;50.014;8.352;2023-10-09T05:00:10;21.25;;;8.45;;
28760;SDS011;15917;50.014;8.352;2023-10-09T05:02:53;22.98;;;8.15;;
28760;SDS011;15917;50.014;8.352;2023-10-09T05:05:52;28.55;;;8.20;;
28760;SDS011;15917;50.014;8.352;2023-10-09T05:08:24;24.63;;;7.57;;
28760;SDS011;15917;50.014;8.352;2023-10-09T05:10:56;14.90;;;7.53;;
28760;SDS011;15917;50.014;8.352;2023-10-09T05:13:29;24.58;;;8.43;;
28760;SDS011;15917;50.014;8.352;2023-10-09T05:16:08;31.58;;;8.93;;
28760;SDS011;15917;50.014;8.352;2023-10-09T05:18:43;21.60;;;8.68;;
28760;SDS011;15917;50.014;8.352;2023-10-09T05:21:32;19.80;;;7.30;;
28760;SDS011;15917;50.014;8.352;2023-10-09T05:24:09;16.23;;;7.68;;
28760;SDS011;15917;50.014;8.352;2023-10-09T05:26:56;20.48;;;8.60;;
28760;SDS011;15917;50.014;8.352;2023-10-09T05:29:41;27.73;;;7.82;;
28760;SDS011;15917;50.014;8.352;2023-10-09T05:32:24;25.88;;;7.45;;
28760;SDS011;15917;50.014;8.352;2023-10-09T05:34:55;17.83;;;7.72;;
28760;SDS011;15917;50.014;8.352;2023-10-09T05:37:30;23.50;;;7.55;;
28760;SDS011;15917;50.014;8.352;2023-10-09T05:40:08;20.95;;;6.80;;
28760;SDS011;15917;50.014;8.352;2023-10-09T05:42:44;22.88;;;7.63;;
28760;SDS011;15917;50.014;8.352;2023-10-09T05:47:51;19.75;;;7.95;;
28760;SDS011;15917;50.014;8.352;2023-10-09T05:50:19;20.98;;;6.18;;
28760;SDS011;15917;50.014;8.352;2023-10-09T05:52:49;21.08;;;6.43;;
28760;SDS011;15917;50.014;8.352;2023-10-09T05:55:18;16.98;;;6.55;;
28760;SDS011;15917;50.014;8.352;2023-10-09T05:57:44;20.45;;;6.18;;
28760;SDS011;15917;50.014;8.352;2023-10-09T06:00:28;15.63;;;5.88;;
28760;SDS011;15917;50.014;8.352;2023-10-09T06:03:12;19.92;;;6.32;;
28760;SDS011;15917;50.014;8.352;2023-10-09T06:05:47;16.00;;;6.55;;
28760;SDS011;15917;50.014;8.352;2023-10-09T06:08:26;26.20;;;7.30;;
28760;SDS011;15917;50.014;8.352;2023-10-09T06:11:06;20.75;;;6.88;;
28760;SDS011;15917;50.014;8.352;2023-10-09T06:13:56;22.60;;;6.63;;
28760;SDS011;15917;50.014;8.352;2023-10-09T06:16:41;25.85;;;7.32;;
28760;SDS011;15917;50.014;8.352;2023-10-09T06:19:08;14.77;;;6.28;;
28760;SDS011;15917;50.014;8.352;2023-10-09T06:21:38;17.80;;;6.82;;
28760;SDS011;15917;50.014;8.352;2023-10-09T06:24:06;22.35;;;7.35;;
28760;SDS011;15917;50.014;8.352;2023-10-09T06:26:42;24.42;;;8.43;;
28760;SDS011;15917;50.014;8.352;2023-10-09T06:29:29;21.10;;;8.95;;
28760;SDS011;15917;50.014;8.352;2023-10-09T06:32:15;35.08;;;9.23;;
28760;SDS011;15917;50.014;8.352;2023-10-09T06:34:59;26.45;;;8.85;;
28760;SDS011;15917;50.014;8.352;2023-10-09T06:37:46;25.10;;;8.38;;
28760;SDS011;15917;50.014;8.352;2023-10-09T06:40:29;29.88;;;10.77;;
28760;SDS011;15917;50.014;8.352;2023-10-09T06:43:14;24.80;;;8.65;;
28760;SDS011;15917;50.014;8.352;2023-10-09T06:45:45;31.73;;;7.85;;
28760;SDS011;15917;50.014;8.352;2023-10-09T06:48:11;31.85;;;9.18;;
28760;SDS011;15917;50.014;8.352;2023-10-09T06:51:09;21.23;;;7.88;;
28760;SDS011;15917;50.014;8.352;2023-10-09T06:56:18;17.85;;;7.60;;
28760;SDS011;15917;50.014;8.352;2023-10-09T06:59:09;26.88;;;8.50;;
28760;SDS011;15917;50.014;8.352;2023-10-09T07:01:49;25.42;;;8.10;;
28760;SDS011;15917;50.014;8.352;2023-10-09T07:04:34;21.52;;;8.13;;
28760;SDS011;15917;50.014;8.352;2023-10-09T07:07:00;25.65;;;8.18;;
28760;SDS011;15917;50.014;8.352;2023-10-09T07:09:27;27.55;;;8.40;;
28760;SDS011;15917;50.014;8.352;2023-10-09T07:12:07;19.88;;;8.18;;
28760;SDS011;15917;50.014;8.352;2023-10-09T07:14:45;26.48;;;7.57;;
28760;SDS011;15917;50.014;8.352;2023-10-09T07:17:11;27.60;;;9.65;;
28760;SDS011;15917;50.014;8.352;2023-10-09T07:19:56;16.45;;;8.05;;
28760;SDS011;15917;50.014;8.352;2023-10-09T07:22:39;18.92;;;6.88;;
28760;SDS011;15917;50.014;8.352;2023-10-09T07:25:17;30.73;;;8.50;;
28760;SDS011;15917;50.014;8.352;2023-10-09T07:28:05;22.63;;;7.57;;
28760;SDS011;15917;50.014;8.352;2023-10-09T07:30:46;17.83;;;6.93;;
28760;SDS011;15917;50.014;8.352;2023-10-09T07:33:12;21.88;;;7.90;;
28760;SDS011;15917;50.014;8.352;2023-10-09T07:35:42;20.92;;;8.13;;
28760;SDS011;15917;50.014;8.352;2023-10-09T07:38:19;29.95;;;7.53;;
28760;SDS011;15917;50.014;8.352;2023-10-09T07:40:47;22.95;;;7.72;;
28760;SDS011;15917;50.014;8.352;2023-10-09T07:43:35;22.55;;;7.55;;
28760;SDS011;15917;50.014;8.352;2023-10-09T07:46:08;18.77;;;6.57;;
28760;SDS011;15917;50.014;8.352;2023-10-09T07:48:57;25.02;;;7.10;;
28760;SDS011;15917;50.014;8.352;2023-10-09T07:51:38;17.92;;;7.18;;
28760;SDS011;15917;50.014;8.352;2023-10-09T07:54:08;20.70;;;8.15;;
28760;SDS011;15917;50.014;8.352;2023-10-09T07:56:39;23.40;;;8.23;;
28760;SDS011;15917;50.014;8.352;2023-10-09T07:59:10;24.90;;;7.93;;
28760;SDS011;15917;50.014;8.352;2023-10-09T08:01:40;22.85;;;6.97;;
28760;SDS011;15917;50.014;8.352;2023-10-09T08:04:27;24.40;;;7.30;;
28760;SDS011;15917;50.014;8.352;2023-10-09T08:07:09;24.05;;;9.00;;
28760;SDS011;15917;50.014;8.352;2023-10-09T08:09:44;21.30;;;7.32;;
28760;SDS011;15917;50.014;8.352;2023-10-09T08:12:16;26.45;;;7.47;;
28760;SDS011;15917;50.014;8.352;2023-10-09T08:15:01;20.85;;;7.78;;
28760;SDS011;15917;50.014;8.352;2023-10-09T08:17:51;24.73;;;8.00;;
28760;SDS011;15917;50.014;8.352;2023-10-09T08:20:39;25.88;;;7.82;;
28760;SDS011;15917;50.014;8.352;2023-10-09T08:23:23;25.67;;;8.30;;
28760;SDS011;15917;50.014;8.352;2023-10-09T08:26:04;29.80;;;7.90;;
28760;SDS011;15917;50.014;8.352;2023-10-09T08:28:38;17.45;;;8.13;;
28760;SDS011;15917;50.014;8.352;2023-10-09T08:31:14;22.17;;;9.20;;
28760;SDS011;15917;50.014;8.352;2023-10-09T08:33:59;26.67;;;7.82;;
28760;SDS011;15917;50.014;8.352;2023-10-09T08:36:26;27.80;;;8.52;;
28760;SDS011;15917;50.014;8.352;2023-10-09T08:39:01;27.35;;;7.90;;
28760;SDS011;15917;50.014;8.352;2023-10-09T08:41:42;25.70;;;8.60;;
28760;SDS011;15917;50.014;8.352;2023-10-09T08:44:07;24.42;;;8.18;;
28760;SDS011;15917;50.014;8.352;2023-10-09T08:46:40;24.45;;;8.45;;
28760;SDS011;15917;50.014;8.352;2023-10-09T08:49:07;18.40;;;8.05;;
28760;SDS011;15917;50.014;8.352;2023-10-09T08:51:35;22.73;;;8.20;;
28760;SDS011;15917;50.014;8.352;2023-10-09T08:54:02;27.47;;;8.50;;
28760;SDS011;15917;50.014;8.352;2023-10-09T08:56:29;24.10;;;8.90;;
28760;SDS011;15917;50.014;8.352;2023-10-09T08:58:56;20.33;;;8.27;;
28760;SDS011;15917;50.014;8.352;2023-10-09T09:01:23;21.83;;;8.02;;
28760;SDS011;15917;50.014;8.352;2023-10-09T09:03:50;22.13;;;8.13;;
28760;SDS011;15917;50.014;8.352;2023-10-09T09:06:20;19.30;;;7.72;;
28760;SDS011;15917;50.014;8.352;2023-10-09T09:08:48;25.60;;;8.68;;
28760;SDS011;15917;50.014;8.352;2023-10-09T09:11:19;22.80;;;8.55;;
28760;SDS011;15917;50.014;8.352;2023-10-09T09:16:30;30.40;;;8.98;;
28760;SDS011;15917;50.014;8.352;2023-10-09T09:19:01;22.93;;;7.87;;
28760;SDS011;15917;50.014;8.352;2023-10-09T09:21:30;22.80;;;8.05;;
28760;SDS011;15917;50.014;8.352;2023-10-09T09:24:03;17.75;;;8.45;;
28760;SDS011;15917;50.014;8.352;2023-10-09T09:26:41;23.23;;;7.60;;
28760;SDS011;15917;50.014;8.352;2023-10-09T09:29:24;25.17;;;7.57;;
28760;SDS011;15917;50.014;8.352;2023-10-09T09:32:03;28.38;;;7.88;;
28760;SDS011;15917;50.014;8.352;2023-10-09T09:37:18;20.15;;;6.97;;
28760;SDS011;15917;50.014;8.352;2023-10-09T09:39:46;22.77;;;7.13;;
28760;SDS011;15917;50.014;8.352;2023-10-09T09:42:14;21.13;;;6.68;;
28760;SDS011;15917;50.014;8.352;2023-10-09T09:44:50;18.60;;;7.03;;
28760;SDS011;15917;50.014;8.352;2023-10-09T09:47:17;23.98;;;6.60;;
28760;SDS011;15917;50.014;8.352;2023-10-09T09:49:52;17.88;;;6.43;;
28760;SDS011;15917;50.014;8.352;2023-10-09T09:52:18;22.77;;;6.63;;
28760;SDS011;15917;50.014;8.352;2023-10-09T09:54:44;21.13;;;6.43;;
28760;SDS011;15917;50.014;8.352;2023-10-09T09:57:14;22.35;;;7.57;;
28760;SDS011;15917;50.014;8.352;2023-10-09T09:59:51;27.88;;;7.05;;
28760;SDS011;15917;50.014;8.352;2023-10-09T10:02:23;28.38;;;6.80;;
28760;SDS011;15917;50.014;8.352;2023-10-09T10:04:55;30.17;;;7.63;;
28760;SDS011;15917;50.014;8.352;2023-10-09T10:07:24;22.00;;;6.90;;
28760;SDS011;15917;50.014;8.352;2023-10-09T10:09:51;17.33;;;6.40;;
28760;SDS011;15917;50.014;8.352;2023-10-09T10:12:49;29.08;;;8.32;;
28760;SDS011;15917;50.014;8.352;2023-10-09T10:15:46;27.85;;;8.13;;
28760;SDS011;15917;50.014;8.352;2023-10-09T10:18:22;35.15;;;6.85;;
28760;SDS011;15917;50.014;8.352;2023-10-09T10:23:39;29.10;;;6.75;;
28760;SDS011;15917;50.014;8.352;2023-10-09T10:26:18;22.17;;;7.70;;
28760;SDS011;15917;50.014;8.352;2023-10-09T10:31:54;27.65;;;7.07;;
28760;SDS011;15917;50.014;8.352;2023-10-09T10:37:37;30.25;;;8.90;;
28760;SDS011;15917;50.014;8.352;2023-10-09T10:40:50;24.98;;;7.75;;
28760;SDS011;15917;50.014;8.352;2023-10-09T10:43:15;34.22;;;7.95;;
28760;SDS011;15917;50.014;8.352;2023-10-09T10:46:13;37.72;;;7.45;;
28760;SDS011;15917;50.014;8.352;2023-10-09T10:48:40;22.63;;;7.25;;
28760;SDS011;15917;50.014;8.352;2023-10-09T10:51:12;22.00;;;7.15;;
28760;SDS011;15917;50.014;8.352;2023-10-09T10:53:53;28.38;;;6.97;;
28760;SDS011;15917;50.014;8.352;2023-10-09T10:56:23;20.85;;;6.43;;
28760;SDS011;15917;50.014;8.352;2023-10-09T10:59:00;18.73;;;5.90;;
28760;SDS011;15917;50.014;8.352;2023-10-09T11:01:32;16.08;;;5.28;;
28760;SDS011;15917;50.014;8.352;2023-10-09T11:04:16;29.38;;;6.32;;
28760;SDS011;15917;50.014;8.352;2023-10-09T11:06:54;19.75;;;6.25;;
28760;SDS011;15917;50.014;8.352;2023-10-09T11:09:52;25.08;;;6.05;;
28760;SDS011;15917;50.014;8.352;2023-10-09T11:15:06;17.02;;;5.68;;
28760;SDS011;15917;50.014;8.352;2023-10-09T11:18:02;13.88;;;4.63;;
28760;SDS011;15917;50.014;8.352;2023-10-09T11:20:42;15.73;;;5.00;;
28760;SDS011;15917;50.014;8.352;2023-10-09T11:23:21;18.55;;;5.72;;
28760;SDS011;15917;50.014;8.352;2023-10-09T11:26:08;20.30;;;4.57;;
28760;SDS011;15917;50.014;8.352;2023-10-09T11:28:46;19.52;;;5.43;;
28760;SDS011;15917;50.014;8.352;2023-10-09T11:31:38;20.13;;;6.03;;
28760;SDS011;15917;50.014;8.352;2023-10-09T11:34:20;14.60;;;5.53;;
28760;SDS011;15917;50.014;8.352;2023-10-09T11:36:58;15.85;;;5.10;;
28760;SDS011;15917;50.014;8.352;2023-10-09T11:39:26;13.68;;;5.32;;
28760;SDS011;15917;50.014;8.352;2023-10-09T11:42:03;14.95;;;4.68;;
28760;SDS011;15917;50.014;8.352;2023-10-09T11:44:39;23.42;;;4.28;;
28760;SDS011;15917;50.014;8.352;2023-10-09T11:47:06;18.23;;;4.70;;
28760;SDS011;15917;50.014;8.352;2023-10-09T11:50:02;14.73;;;5.03;;
28760;SDS011;15917;50.014;8.352;2023-10-09T11:52:28;12.43;;;4.90;;
28760;SDS011;15917;50.014;8.352;2023-10-09T11:55:01;12.65;;;4.28;;
28760;SDS011;15917;50.014;8.352;2023-10-09T11:57:28;14.02;;;5.00;;
28760;SDS011;15917;50.014;8.352;2023-10-09T11:59:58;11.15;;;4.40;;
28760;SDS011;15917;50.014;8.352;2023-10-09T12:02:25;12.17;;;4.60;;
28760;SDS011;15917;50.014;8.352;2023-10-09T12:04:51;16.80;;;4.93;;
28760;SDS011;15917;50.014;8.352;2023-10-09T12:07:20;18.10;;;5.25;;
28760;SDS011;15917;50.014;8.352;2023-10-09T12:09:47;16.75;;;5.15;;
28760;SDS011;15917;50.014;8.352;2023-10-09T12:12:13;11.27;;;5.00;;
28760;SDS011;15917;50.014;8.352;2023-10-09T12:14:39;15.52;;;4.90;;
28760;SDS011;15917;50.014;8.352;2023-10-09T12:17:08;12.98;;;4.53;;
28760;SDS011;15917;50.014;8.352;2023-10-09T12:19:34;17.70;;;4.60;;
28760;SDS011;15917;50.014;8.352;2023-10-09T12:22:01;11.25;;;4.85;;
28760;SDS011;15917;50.014;8.352;2023-10-09T12:24:31;11.13;;;4.85;;
28760;SDS011;15917;50.014;8.352;2023-10-09T12:26:58;19.45;;;5.03;;
28760;SDS011;15917;50.014;8.352;2023-10-09T12:29:25;13.63;;;4.78;;
28760;SDS011;15917;50.014;8.352;2023-10-09T12:31:55;10.35;;;4.50;;
28760;SDS011;15917;50.014;8.352;2023-10-09T12:34:27;17.17;;;4.65;;
28760;SDS011;15917;50.014;8.352;2023-10-09T12:36:53;12.32;;;5.05;;
28760;SDS011;15917;50.014;8.352;2023-10-09T12:39:23;10.88;;;4.80;;
28760;SDS011;15917;50.014;8.352;2023-10-09T12:41:48;15.38;;;5.13;;
28760;SDS011;15917;50.014;8.352;2023-10-09T12:44:18;11.32;;;4.70;;
28760;SDS011;15917;50.014;8.352;2023-10-09T12:46:44;14.35;;;5.10;;
28760;SDS011;15917;50.014;8.352;2023-10-09T12:49:20;12.60;;;4.70;;
28760;SDS011;15917;50.014;8.352;2023-10-09T12:51:53;10.93;;;4.78;;
28760;SDS011;15917;50.014;8.352;2023-10-09T12:54:19;15.13;;;5.43;;
28760;SDS011;15917;50.014;8.352;2023-10-09T12:56:45;13.00;;;4.70;;
28760;SDS011;15917;50.014;8.352;2023-10-09T12:59:14;10.38;;;4.28;;
28760;SDS011;15917;50.014;8.352;2023-10-09T13:01:40;10.90;;;4.57;;
28760;SDS011;15917;50.014;8.352;2023-10-09T13:04:10;14.02;;;4.43;;
28760;SDS011;15917;50.014;8.352;2023-10-09T13:06:44;18.98;;;5.47;;
28760;SDS011;15917;50.014;8.352;2023-10-09T13:09:14;19.50;;;5.35;;
28760;SDS011;15917;50.014;8.352;2023-10-09T13:11:43;14.65;;;4.25;;
28760;SDS011;15917;50.014;8.352;2023-10-09T13:14:09;13.73;;;4.63;;
28760;SDS011;15917;50.014;8.352;2023-10-09T13:16:47;11.25;;;4.88;;
28760;SDS011;15917;50.014;8.352;2023-10-09T13:19:15;14.60;;;5.03;;
28760;SDS011;15917;50.014;8.352;2023-10-09T13:21:42;11.00;;;5.30;;
28760;SDS011;15917;50.014;8.352;2023-10-09T13:24:09;13.90;;;4.90;;
28760;SDS011;15917;50.014;8.352;2023-10-09T13:26:44;17.60;;;5.07;;
28760;SDS011;15917;50.014;8.352;2023-10-09T13:29:11;13.90;;;4.90;;
28760;SDS011;15917;50.014;8.352;2023-10-09T13:31:38;11.73;;;5.03;;
28760;SDS011;15917;50.014;8.352;2023-10-09T13:34:05;11.17;;;4.17;;
28760;SDS011;15917;50.014;8.352;2023-10-09T13:36:40;17.58;;;4.65;;
28760;SDS011;15917;50.014;8.352;2023-10-09T13:39:18;10.52;;;5.15;;
28760;SDS011;15917;50.014;8.352;2023-10-09T13:41:50;11.15;;;5.07;;
28760;SDS011;15917;50.014;8.352;2023-10-09T13:44:27;16.73;;;4.50;;
28760;SDS011;15917;50.014;8.352;2023-10-09T13:46:54;16.70;;;4.80;;
28760;SDS011;15917;50.014;8.352;2023-10-09T13:49:30;13.68;;;5.05;;
28760;SDS011;15917;50.014;8.352;2023-10-09T13:51:56;11.52;;;4.97;;
28760;SDS011;15917;50.014;8.352;2023-10-09T13:54:26;12.15;;;4.88;;
28760;SDS011;15917;50.014;8.352;2023-10-09T13:56:58;17.88;;;4.78;;
28760;SDS011;15917;50.014;8.352;2023-10-09T13:59:25;12.55;;;5.18;;
28760;SDS011;15917;50.014;8.352;2023-10-09T14:01:51;11.02;;;5.03;;
28760;SDS011;15917;50.014;8.352;2023-10-09T14:04:19;13.25;;;4.78;;
28760;SDS011;15917;50.014;8.352;2023-10-09T14:06:49;9.45;;;4.45;;
28760;SDS011;15917;50.014;8.352;2023-10-09T14:09:24;14.93;;;4.70;;
28760;SDS011;15917;50.014;8.352;2023-10-09T14:11:57;11.98;;;5.55;;
28760;SDS011;15917;50.014;8.352;2023-10-09T14:14:32;14.10;;;5.15;;
28760;SDS011;15917;50.014;8.352;2023-10-09T14:16:59;22.27;;;6.28;;
28760;SDS011;15917;50.014;8.352;2023-10-09T14:19:25;23.52;;;5.45;;
28760;SDS011;15917;50.014;8.352;2023-10-09T14:21:51;18.13;;;4.90;;
28760;SDS011;15917;50.014;8.352;2023-10-09T14:24:17;12.75;;;4.88;;
28760;SDS011;15917;50.014;8.352;2023-10-09T14:26:44;17.70;;;4.88;;
28760;SDS011;15917;50.014;8.352;2023-10-09T14:29:10;17.63;;;5.30;;
28760;SDS011;15917;50.014;8.352;2023-10-09T14:31:42;14.02;;;5.13;;
28760;SDS011;15917;50.014;8.352;2023-10-09T14:34:08;18.43;;;5.77;;
28760;SDS011;15917;50.014;8.352;2023-10-09T14:36:34;31.33;;;5.97;;
28760;SDS011;15917;50.014;8.352;2023-10-09T14:39:00;18.17;;;5.93;;
28760;SDS011;15917;50.014;8.352;2023-10-09T14:41:26;9.07;;;4.55;;
28760;SDS011;15917;50.014;8.352;2023-10-09T14:43:53;29.20;;;5.22;;
28760;SDS011;15917;50.014;8.352;2023-10-09T14:46:19;16.17;;;5.55;;
28760;SDS011;15917;50.014;8.352;2023-10-09T14:48:51;14.20;;;5.53;;
28760;SDS011;15917;50.014;8.352;2023-10-09T14:51:18;12.85;;;5.65;;
28760;SDS011;15917;50.014;8.352;2023-10-09T14:53:58;14.95;;;4.90;;
28760;SDS011;15917;50.014;8.352;2023-10-09T14:56:24;17.70;;;5.05;;
28760;SDS011;15917;50.014;8.352;2023-10-09T14:58:54;20.95;;;5.43;;
28760;SDS011;15917;50.014;8.352;2023-10-09T15:01:21;16.25;;;5.60;;
28760;SDS011;15917;50.014;8.352;2023-10-09T15:03:49;19.67;;;5.82;;
28760;SDS011;15917;50.014;8.352;2023-10-09T15:06:18;12.43;;;4.95;;
28760;SDS011;15917;50.014;8.352;2023-10-09T15:08:44;14.70;;;5.13;;
28760;SDS011;15917;50.014;8.352;2023-10-09T15:11:11;16.70;;;5.80;;
28760;SDS011;15917;50.014;8.352;2023-10-09T15:13:37;20.85;;;5.68;;
28760;SDS011;15917;50.014;8.352;2023-10-09T15:16:04;24.77;;;6.35;;
28760;SDS011;15917;50.014;8.352;2023-10-09T15:18:30;17.02;;;5.70;;
28760;SDS011;15917;50.014;8.352;2023-10-09T15:20:58;16.00;;;5.28;;
28760;SDS011;15917;50.014;8.352;2023-10-09T15:23:24;30.25;;;5.43;;
28760;SDS011;15917;50.014;8.352;2023-10-09T15:25:51;22.85;;;5.85;;
28760;SDS011;15917;50.014;8.352;2023-10-09T15:28:18;15.85;;;5.35;;
28760;SDS011;15917;50.014;8.352;2023-10-09T15:30:44;20.92;;;5.80;;
28760;SDS011;15917;50.014;8.352;2023-10-09T15:33:14;14.18;;;5.38;;
28760;SDS011;15917;50.014;8.352;2023-10-09T15:35:42;16.33;;;6.00;;
28760;SDS011;15917;50.014;8.352;2023-10-09T15:38:11;17.20;;;5.82;;
28760;SDS011;15917;50.014;8.352;2023-10-09T15:40:38;15.77;;;5.63;;
28760;SDS011;15917;50.014;8.352;2023-10-09T15:43:08;13.95;;;5.18;;